createdAt,value
2023-05-09T00:02:05.043Z,11.30
2023-05-09T00:04:32.873Z,11.20
2023-05-09T00:07:00.026Z,11.30
2023-05-09T00:09:27.643Z,11.30
2023-05-09T00:11:54.632Z,11.20
2023-05-09T00:14:22.167Z,11.20
2023-05-09T00:16:49.475Z,11.20
2023-05-09T00:19:16.582Z,11.10
2023-05-09T00:21:43.670Z,11.00
2023-05-09T00:24:10.651Z,11.00
2023-05-09T00:26:38.834Z,11.00
2023-05-09T00:29:06.105Z,11.00
2023-05-09T00:31:33.754Z,11.00
2023-05-09T00:34:01.321Z,10.90
2023-05-09T00:36:28.356Z,10.90
2023-05-09T00:38:55.620Z,10.80
2023-05-09T00:41:22.670Z,10.80
2023-05-09T00:43:49.690Z,10.80
2023-05-09T00:46:16.791Z,10.80
2023-05-09T00:48:44.224Z,10.90
2023-05-09T00:51:11.284Z,10.90
2023-05-09T00:53:38.316Z,11.00
2023-05-09T00:56:06.822Z,11.00
2023-05-09T00:58:33.834Z,10.90
2023-05-09T01:01:02.262Z,10.90
2023-05-09T01:03:30.841Z,11.00
2023-05-09T01:06:19.430Z,11.00
2023-05-09T01:09:11.985Z,11.00
2023-05-09T01:12:11.196Z,11.10
2023-05-09T01:14:51.656Z,11.10
2023-05-09T01:17:48.502Z,11.00
2023-05-09T01:20:31.768Z,11.10
2023-05-09T01:23:25.773Z,11.00
2023-05-09T01:26:01.760Z,10.90
2023-05-09T01:28:36.677Z,10.90
2023-05-09T01:31:04.896Z,10.90
2023-05-09T01:33:32.920Z,10.90
2023-05-09T01:36:01.937Z,10.90
2023-05-09T01:38:30.300Z,10.90
2023-05-09T01:40:58.392Z,10.90
2023-05-09T01:43:27.104Z,10.90
2023-05-09T01:45:54.588Z,10.90
2023-05-09T01:48:22.089Z,10.90
2023-05-09T01:50:49.157Z,10.90
2023-05-09T01:53:16.382Z,10.90
2023-05-09T01:55:43.462Z,10.90
2023-05-09T01:58:12.076Z,10.90
2023-05-09T02:00:39.466Z,10.90
2023-05-09T02:03:06.866Z,10.90
2023-05-09T02:05:33.940Z,10.90
2023-05-09T02:08:01.599Z,10.90
2023-05-09T02:10:28.728Z,10.90
2023-05-09T02:12:56.286Z,11.00
2023-05-09T02:15:23.390Z,10.90
2023-05-09T02:17:51.534Z,10.90
2023-05-09T02:20:18.688Z,10.90
2023-05-09T02:22:46.420Z,10.90
2023-05-09T02:25:17.215Z,10.90
2023-05-09T02:27:45.408Z,10.80
2023-05-09T02:30:23.403Z,10.90
2023-05-09T02:32:54.122Z,10.90
2023-05-09T02:35:21.790Z,10.80
2023-05-09T02:37:48.925Z,10.80
2023-05-09T02:40:15.998Z,10.80
2023-05-09T02:42:43.094Z,10.80
2023-05-09T02:45:11.170Z,10.80
2023-05-09T02:47:38.865Z,10.80
2023-05-09T02:50:06.737Z,10.80
2023-05-09T02:52:36.222Z,10.80
2023-05-09T02:55:04.884Z,10.80
2023-05-09T02:57:34.993Z,10.80
2023-05-09T03:00:03.961Z,10.80
2023-05-09T03:02:32.730Z,10.80
2023-05-09T03:04:59.837Z,10.80
2023-05-09T03:07:26.790Z,10.80
2023-05-09T03:09:53.850Z,10.80
2023-05-09T03:12:20.968Z,10.80
2023-05-09T03:14:51.524Z,10.70
2023-05-09T03:17:21.340Z,10.70
2023-05-09T03:19:48.811Z,10.70
2023-05-09T03:22:15.924Z,10.70
2023-05-09T03:24:53.642Z,10.70
2023-05-09T03:27:20.717Z,10.70
2023-05-09T03:29:49.204Z,10.70
2023-05-09T03:32:18.184Z,10.70
2023-05-09T03:34:45.217Z,10.70
2023-05-09T03:37:12.270Z,10.80
2023-05-09T03:39:41.089Z,10.80
2023-05-09T03:42:08.092Z,10.80
2023-05-09T03:44:36.337Z,10.80
2023-05-09T03:47:03.614Z,10.80
2023-05-09T03:49:36.822Z,10.80
2023-05-09T03:52:04.998Z,10.80
2023-05-09T03:54:33.755Z,11.10
2023-05-09T03:57:01.248Z,11.40
2023-05-09T03:59:28.601Z,11.50
2023-05-09T04:01:56.979Z,11.70
2023-05-09T04:04:27.409Z,11.80
2023-05-09T04:06:55.023Z,12.00
2023-05-09T04:09:22.218Z,12.00
2023-05-09T04:11:49.306Z,12.00
2023-05-09T04:14:16.514Z,12.10
2023-05-09T04:16:43.505Z,12.10
2023-05-09T04:19:10.590Z,12.00
2023-05-09T04:21:38.495Z,12.10
2023-05-09T04:24:07.781Z,12.20
2023-05-09T04:26:40.409Z,12.30
2023-05-09T04:29:11.198Z,12.40
2023-05-09T04:31:38.657Z,12.60
2023-05-09T04:34:07.934Z,12.70
2023-05-09T04:36:37.596Z,12.80
2023-05-09T04:39:05.332Z,12.90
2023-05-09T04:41:34.858Z,12.80
2023-05-09T04:44:03.293Z,12.90
2023-05-09T04:46:30.470Z,12.80
2023-05-09T04:49:00.474Z,12.60
2023-05-09T04:51:27.751Z,12.50
2023-05-09T04:53:54.720Z,12.20
2023-05-09T04:56:27.893Z,12.20
2023-05-09T04:58:54.940Z,12.10
2023-05-09T05:01:22.027Z,12.20
2023-05-09T05:03:50.616Z,12.40
2023-05-09T05:06:17.684Z,12.60
2023-05-09T05:08:45.070Z,12.70
2023-05-09T05:11:13.620Z,12.80
2023-05-09T05:13:40.764Z,13.00
2023-05-09T05:16:07.833Z,13.10
2023-05-09T05:18:34.985Z,13.20
2023-05-09T05:21:03.099Z,13.20
2023-05-09T05:23:30.746Z,13.30
2023-05-09T05:25:57.930Z,13.30
2023-05-09T05:28:25.840Z,13.30
2023-05-09T05:30:53.198Z,13.20
2023-05-09T05:33:20.800Z,13.10
2023-05-09T05:35:47.887Z,13.20
2023-05-09T05:38:15.072Z,13.30
2023-05-09T05:40:43.630Z,13.30
2023-05-09T05:43:11.970Z,13.30
2023-05-09T05:45:39.877Z,13.40
2023-05-09T05:48:10.688Z,13.50
2023-05-09T05:50:38.008Z,13.60
2023-05-09T05:53:05.315Z,13.70
2023-05-09T05:55:33.351Z,13.90
2023-05-09T05:58:00.688Z,13.90
2023-05-09T06:00:27.689Z,14.00
2023-05-09T06:03:01.708Z,14.00
2023-05-09T06:05:34.885Z,13.90
2023-05-09T06:08:04.321Z,14.10
2023-05-09T06:10:32.758Z,14.20
2023-05-09T06:13:00.445Z,14.30
2023-05-09T06:15:28.153Z,14.30
2023-05-09T06:17:55.986Z,14.10
2023-05-09T06:20:23.839Z,14.00
2023-05-09T06:22:51.077Z,14.10
2023-05-09T06:25:19.247Z,14.00
2023-05-09T06:27:46.709Z,13.80
2023-05-09T06:30:25.495Z,13.70
2023-05-09T06:32:53.510Z,13.80
2023-05-09T06:35:20.786Z,14.10
2023-05-09T06:37:48.774Z,14.20
2023-05-09T06:40:16.710Z,14.20
2023-05-09T06:42:43.771Z,14.10
2023-05-09T06:45:11.572Z,14.00
2023-05-09T06:47:38.905Z,14.10
2023-05-09T06:50:07.128Z,14.30
2023-05-09T06:52:34.510Z,14.60
2023-05-09T06:55:01.550Z,14.60
2023-05-09T06:57:28.864Z,14.50
2023-05-09T06:59:55.857Z,14.30
2023-05-09T07:02:23.407Z,14.30
2023-05-09T07:04:50.607Z,14.50
2023-05-09T07:07:17.628Z,14.60
2023-05-09T07:09:44.633Z,14.70
2023-05-09T07:12:11.639Z,14.70
2023-05-09T07:14:38.785Z,14.80
2023-05-09T07:17:21.798Z,14.90
2023-05-09T07:19:51.173Z,14.90
2023-05-09T07:22:18.319Z,14.90
2023-05-09T07:24:46.738Z,14.80
2023-05-09T07:27:14.001Z,14.50
2023-05-09T07:29:41.056Z,14.40
2023-05-09T07:32:08.186Z,14.40
2023-05-09T07:34:36.085Z,14.40
2023-05-09T07:37:03.156Z,14.40
2023-05-09T07:39:30.356Z,14.40
2023-05-09T07:41:58.026Z,14.60
2023-05-09T07:44:25.053Z,14.70
2023-05-09T07:46:52.136Z,14.80
2023-05-09T07:49:19.699Z,14.80
2023-05-09T07:51:49.618Z,14.80
2023-05-09T07:54:21.023Z,14.80
2023-05-09T07:56:48.606Z,14.80
2023-05-09T07:59:15.671Z,14.90
2023-05-09T08:01:42.680Z,15.10
2023-05-09T08:04:10.178Z,15.30
2023-05-09T08:06:37.462Z,15.40
2023-05-09T08:09:04.933Z,15.50
2023-05-09T08:11:36.081Z,15.60
2023-05-09T08:14:03.324Z,15.60
2023-05-09T08:16:31.313Z,15.70
2023-05-09T08:18:58.890Z,15.70
2023-05-09T08:21:26.783Z,15.90
2023-05-09T08:23:53.820Z,16.00
2023-05-09T08:26:23.008Z,16.10
2023-05-09T08:28:50.070Z,16.20
2023-05-09T08:31:17.164Z,16.30
2023-05-09T08:33:44.255Z,16.40
2023-05-09T08:36:11.299Z,16.30
2023-05-09T08:38:40.522Z,16.30
2023-05-09T08:41:07.576Z,16.30
2023-05-09T08:43:35.781Z,16.30
2023-05-09T08:46:10.103Z,16.20
2023-05-09T08:48:40.470Z,16.00
2023-05-09T08:51:07.700Z,15.90
2023-05-09T08:53:34.938Z,16.00
2023-05-09T08:56:03.795Z,15.90
2023-05-09T08:58:31.769Z,15.70
2023-05-09T09:00:58.870Z,15.70
2023-05-09T09:03:26.822Z,15.80
2023-05-09T09:05:54.865Z,16.00
2023-05-09T09:08:23.145Z,16.00
2023-05-09T09:10:50.763Z,16.00
2023-05-09T09:13:18.446Z,16.20
2023-05-09T09:15:46.307Z,16.30
2023-05-09T09:18:23.953Z,16.30
2023-05-09T09:21:01.756Z,16.40
2023-05-09T09:23:28.973Z,16.50
2023-05-09T09:26:01.068Z,16.40
2023-05-09T09:28:29.460Z,16.30
2023-05-09T09:30:56.610Z,16.20
2023-05-09T09:33:25.896Z,16.30
2023-05-09T09:35:54.137Z,16.20
2023-05-09T09:38:22.235Z,16.20
2023-05-09T09:40:56.292Z,16.30
2023-05-09T09:43:30.464Z,16.10
2023-05-09T09:46:04.354Z,15.90
2023-05-09T09:48:35.124Z,15.70
2023-05-09T09:51:11.732Z,15.70
2023-05-09T09:53:42.340Z,15.70
2023-05-09T09:56:09.939Z,15.80
2023-05-09T09:58:37.048Z,16.00
2023-05-09T10:01:07.801Z,16.00
2023-05-09T10:03:39.369Z,16.10
2023-05-09T10:06:12.987Z,16.20
2023-05-09T10:08:41.323Z,16.30
2023-05-09T10:11:10.858Z,16.30
2023-05-09T10:13:38.824Z,16.30
2023-05-09T10:16:06.809Z,16.30
2023-05-09T10:18:34.213Z,16.30
2023-05-09T10:21:04.177Z,16.20
2023-05-09T10:23:31.989Z,16.10
2023-05-09T10:26:08.184Z,16.20
2023-05-09T10:28:36.201Z,16.40
2023-05-09T10:31:18.513Z,16.60
2023-05-09T10:33:49.869Z,16.70
2023-05-09T10:36:18.620Z,16.60
2023-05-09T10:38:45.668Z,16.60
2023-05-09T10:41:13.714Z,16.60
2023-05-09T10:43:41.019Z,16.80
2023-05-09T10:46:08.077Z,16.90
2023-05-09T10:48:35.175Z,16.90
2023-05-09T10:51:03.462Z,16.80
2023-05-09T10:53:48.906Z,16.70
2023-05-09T10:56:27.481Z,16.60
2023-05-09T10:58:55.359Z,16.60
2023-05-09T11:01:39.135Z,16.50
2023-05-09T11:04:14.516Z,16.40
2023-05-09T11:06:41.874Z,16.40
2023-05-09T11:09:33.219Z,16.30
2023-05-09T11:12:04.656Z,16.50
2023-05-09T11:14:32.792Z,16.60
2023-05-09T11:17:03.116Z,16.40
2023-05-09T11:19:39.049Z,16.30
2023-05-09T11:22:27.726Z,16.20
2023-05-09T11:25:04.895Z,16.30
2023-05-09T11:27:39.140Z,16.30
2023-05-09T11:30:07.795Z,16.40
2023-05-09T11:32:41.268Z,16.50
2023-05-09T11:35:10.157Z,16.50
2023-05-09T11:37:46.962Z,16.40
2023-05-09T11:40:14.936Z,16.30
2023-05-09T11:42:43.992Z,16.10
2023-05-09T11:45:12.263Z,16.00
2023-05-09T11:47:48.902Z,15.80
2023-05-09T11:50:17.231Z,15.70
2023-05-09T11:52:44.279Z,15.60
2023-05-09T11:55:19.334Z,15.70
2023-05-09T11:57:49.082Z,15.70
2023-05-09T12:00:23.877Z,15.60
2023-05-09T12:02:51.492Z,15.60
2023-05-09T12:05:19.848Z,15.70
2023-05-09T12:07:47.162Z,15.80
2023-05-09T12:10:16.491Z,15.80
2023-05-09T12:12:44.748Z,15.80
2023-05-09T12:15:13.725Z,15.80
2023-05-09T12:17:42.846Z,15.80
2023-05-09T12:20:10.385Z,15.80
2023-05-09T12:22:37.670Z,15.80
2023-05-09T12:25:10.338Z,15.70
2023-05-09T12:27:38.657Z,15.80
2023-05-09T12:30:10.942Z,15.80
2023-05-09T12:32:39.601Z,16.00
2023-05-09T12:35:08.519Z,16.10
2023-05-09T12:37:35.704Z,16.10
2023-05-09T12:40:05.163Z,16.10
2023-05-09T12:42:33.480Z,16.20
2023-05-09T12:45:04.893Z,16.30
2023-05-09T12:47:34.046Z,16.30
2023-05-09T12:50:06.780Z,16.30
2023-05-09T12:52:35.360Z,16.40
2023-05-09T12:55:13.690Z,16.40
2023-05-09T12:57:41.160Z,16.40
2023-05-09T13:00:12.379Z,16.30
2023-05-09T13:02:42.203Z,16.20
2023-05-09T13:05:11.103Z,16.10
2023-05-09T13:07:48.329Z,16.10
2023-05-09T13:10:15.531Z,16.00
2023-05-09T13:12:47.062Z,15.90
2023-05-09T13:15:14.944Z,16.00
2023-05-09T13:17:42.587Z,16.10
2023-05-09T13:20:10.669Z,16.30
2023-05-09T13:22:37.904Z,16.40
2023-05-09T13:25:23.011Z,16.60
2023-05-09T13:27:51.709Z,16.60
2023-05-09T13:30:21.237Z,16.50
2023-05-09T13:32:50.798Z,16.30
2023-05-09T13:35:18.100Z,16.30
2023-05-09T13:37:45.204Z,16.30
2023-05-09T13:40:12.729Z,16.20
2023-05-09T13:42:40.958Z,16.20
2023-05-09T13:45:09.906Z,16.10
2023-05-09T13:47:38.778Z,16.10
2023-05-09T13:50:06.930Z,16.20
2023-05-09T13:52:34.194Z,16.30
2023-05-09T13:58:13.243Z,16.40
2023-05-09T14:00:40.778Z,16.40
2023-05-09T14:03:08.724Z,16.50
2023-05-09T14:05:35.843Z,16.60
2023-05-09T14:08:03.595Z,16.70
2023-05-09T14:10:30.625Z,16.70
2023-05-09T14:12:58.046Z,16.80
2023-05-09T14:15:25.951Z,16.90
2023-05-09T14:17:53.053Z,16.90
2023-05-09T14:20:20.965Z,16.90
2023-05-09T14:22:48.776Z,16.80
2023-05-09T14:25:15.999Z,16.80
2023-05-09T14:27:45.401Z,16.80
2023-05-09T14:30:13.436Z,16.70
2023-05-09T14:32:40.852Z,16.60
2023-05-09T14:35:08.450Z,16.50
2023-05-09T14:37:37.066Z,16.40
2023-05-09T14:40:05.767Z,16.30
2023-05-09T14:42:33.151Z,16.30
2023-05-09T14:45:01.158Z,16.20
2023-05-09T14:47:28.595Z,16.20
2023-05-09T14:49:56.451Z,16.20
2023-05-09T14:52:23.714Z,16.20
2023-05-09T14:54:53.973Z,16.30
2023-05-09T14:57:22.379Z,16.40
2023-05-09T15:00:42.223Z,16.50
2023-05-09T15:03:10.121Z,16.50
2023-05-09T15:05:37.668Z,16.60
2023-05-09T15:08:05.276Z,16.70
2023-05-09T15:10:33.913Z,16.70
2023-05-09T15:13:02.284Z,16.60
2023-05-09T15:15:30.300Z,16.60
2023-05-09T15:17:57.761Z,16.60
2023-05-09T15:20:24.837Z,16.70
2023-05-09T15:22:52.024Z,16.70
2023-05-09T15:25:19.761Z,16.80
2023-05-09T15:27:46.803Z,16.90
2023-05-09T15:30:14.350Z,16.80
2023-05-09T15:32:41.836Z,16.90
2023-05-09T15:35:09.085Z,16.90
2023-05-09T15:37:36.494Z,17.00
2023-05-09T15:40:04.206Z,17.20
2023-05-09T15:42:31.496Z,17.30
2023-05-09T15:44:58.954Z,17.30
2023-05-09T15:47:26.190Z,17.40
2023-05-09T15:49:53.473Z,17.40
2023-05-09T15:52:20.566Z,17.50
2023-05-09T15:54:47.729Z,17.50
2023-05-09T15:57:14.874Z,17.60
2023-05-09T15:59:41.901Z,17.60
2023-05-09T16:02:09.016Z,17.60
2023-05-09T16:04:36.741Z,17.50
2023-05-09T16:07:03.855Z,17.50
2023-05-09T16:09:32.846Z,17.40
2023-05-09T16:12:03.347Z,17.40
2023-05-09T16:14:31.241Z,17.30
2023-05-09T16:17:06.053Z,17.30
2023-05-09T16:19:37.320Z,17.30
2023-05-09T16:22:04.528Z,17.20
2023-05-09T16:24:32.714Z,17.10
2023-05-09T16:27:00.073Z,17.10
2023-05-09T16:29:28.501Z,17.00
2023-05-09T16:31:55.643Z,17.00
2023-05-09T16:34:22.758Z,16.90
2023-05-09T16:36:50.052Z,16.90
2023-05-09T16:39:17.504Z,16.90
2023-05-09T16:41:44.577Z,16.80
2023-05-09T16:44:11.747Z,16.80
2023-05-09T16:46:38.932Z,16.80
2023-05-09T16:49:06.043Z,16.70
2023-05-09T16:51:33.149Z,16.70
2023-05-09T16:54:00.174Z,16.70
2023-05-09T16:56:27.819Z,16.70
2023-05-09T16:58:55.834Z,16.60
2023-05-09T17:01:22.906Z,16.50
2023-05-09T17:03:50.422Z,16.40
2023-05-09T17:06:17.852Z,16.40
2023-05-09T17:08:45.647Z,16.40
2023-05-09T17:11:12.872Z,16.40
2023-05-09T17:13:40.795Z,16.30
2023-05-09T17:16:07.931Z,16.30
2023-05-09T17:18:38.038Z,16.20
2023-05-09T17:21:07.034Z,16.20
2023-05-09T17:23:34.087Z,16.20
2023-05-09T17:26:01.681Z,16.10
2023-05-09T17:28:28.815Z,16.10
2023-05-09T17:30:56.048Z,16.00
2023-05-09T17:33:23.146Z,15.90
2023-05-09T17:35:50.209Z,15.90
2023-05-09T17:38:17.737Z,15.80
2023-05-09T17:40:45.479Z,15.80
2023-05-09T17:43:13.370Z,15.80
2023-05-09T17:45:40.366Z,15.80
2023-05-09T17:48:10.041Z,15.70
2023-05-09T17:50:37.387Z,15.70
2023-05-09T17:53:11.781Z,15.70
2023-05-09T17:55:39.451Z,15.70
2023-05-09T17:58:08.057Z,15.60
2023-05-09T18:00:35.518Z,15.70
2023-05-09T18:03:04.850Z,15.70
2023-05-09T18:05:33.672Z,15.70
2023-05-09T18:08:01.317Z,15.70
2023-05-09T18:10:29.093Z,15.60
2023-05-09T18:12:56.382Z,15.50
2023-05-09T18:15:24.323Z,15.50
2023-05-09T18:17:51.601Z,15.40
2023-05-09T18:20:18.915Z,15.30
2023-05-09T18:22:47.108Z,15.20
2023-05-09T18:25:14.324Z,15.20
2023-05-09T18:27:41.451Z,15.10
2023-05-09T18:30:09.159Z,15.10
2023-05-09T18:32:36.251Z,15.00
2023-05-09T18:35:04.204Z,15.00
2023-05-09T18:37:31.632Z,14.90
2023-05-09T18:39:58.598Z,14.80
2023-05-09T18:42:25.776Z,14.70
2023-05-09T18:44:53.422Z,14.70
2023-05-09T18:47:26.749Z,14.70
2023-05-09T18:49:59.254Z,14.60
2023-05-09T18:52:55.318Z,14.50
2023-05-09T18:55:23.390Z,14.30
2023-05-09T18:58:23.571Z,14.30
2023-05-09T19:00:55.305Z,14.20
2023-05-09T19:03:27.852Z,14.20
2023-05-09T19:05:55.281Z,14.10
2023-05-09T19:08:23.384Z,14.00
2023-05-09T19:10:54.587Z,14.00
2023-05-09T19:13:21.603Z,14.00
2023-05-09T19:15:48.775Z,13.90
2023-05-09T19:18:15.830Z,13.90
2023-05-09T19:20:46.408Z,13.90
2023-05-09T19:23:38.612Z,14.00
2023-05-09T19:26:05.685Z,14.00
2023-05-09T19:28:35.724Z,14.00
2023-05-09T19:31:03.975Z,14.00
2023-05-09T19:33:31.736Z,13.90
2023-05-09T19:36:10.120Z,13.90
2023-05-09T19:38:38.909Z,13.80
2023-05-09T19:41:08.796Z,13.80
2023-05-09T19:46:46.847Z,13.70
2023-05-09T19:49:17.818Z,13.50
2023-05-09T19:51:52.127Z,13.50
2023-05-09T19:54:19.606Z,13.50
2023-05-09T19:56:55.767Z,13.50
2023-05-09T20:00:19.696Z,13.40
2023-05-09T20:02:49.114Z,13.40
2023-05-09T20:05:16.353Z,13.30
2023-05-09T20:08:03.928Z,13.30
2023-05-09T20:10:34.436Z,13.30
2023-05-09T20:13:06.185Z,13.30
2023-05-09T20:15:38.088Z,13.30
2023-05-09T20:18:11.155Z,13.20
2023-05-09T20:20:43.964Z,13.10
2023-05-09T20:23:43.507Z,13.10
2023-05-09T20:26:46.249Z,13.00
2023-05-09T20:29:22.147Z,13.00
2023-05-09T20:31:50.967Z,12.90
2023-05-09T20:34:22.836Z,12.90
2023-05-09T20:37:01.068Z,12.90
2023-05-09T20:39:38.117Z,12.80
2023-05-09T20:42:10.196Z,12.70
2023-05-09T20:44:44.271Z,12.70
2023-05-09T20:47:11.687Z,12.70
2023-05-09T20:50:08.399Z,12.60
2023-05-09T20:52:56.024Z,12.40
2023-05-09T20:55:23.035Z,12.50
2023-05-09T20:57:50.036Z,12.40
2023-05-09T21:00:17.407Z,12.50
2023-05-09T21:02:44.722Z,12.50
2023-05-09T21:05:11.871Z,12.50
2023-05-09T21:07:38.863Z,12.40
2023-05-09T21:10:06.860Z,12.30
2023-05-09T21:12:34.984Z,12.20
2023-05-09T21:15:03.214Z,12.20
2023-05-09T21:17:30.535Z,12.20
2023-05-09T21:19:58.168Z,12.10
2023-05-09T21:22:25.245Z,12.10
2023-05-09T21:24:52.787Z,12.10
2023-05-09T21:27:19.713Z,12.20
2023-05-09T21:29:49.293Z,12.20
2023-05-09T21:32:16.980Z,12.20
2023-05-09T21:34:43.973Z,12.20
2023-05-09T21:37:10.951Z,12.20
2023-05-09T21:39:38.006Z,12.20
2023-05-09T21:42:05.047Z,12.10
2023-05-09T21:44:32.394Z,11.90
2023-05-09T21:46:59.545Z,11.80
2023-05-09T21:49:29.236Z,11.80
2023-05-09T21:51:56.223Z,11.80
2023-05-09T21:54:23.442Z,11.70
2023-05-09T21:56:50.539Z,11.70
2023-05-09T21:59:22.853Z,11.80
2023-05-09T22:01:49.793Z,11.90
2023-05-09T22:04:16.742Z,12.00
2023-05-09T22:06:43.819Z,12.10
2023-05-09T22:09:10.831Z,12.20
2023-05-09T22:11:37.836Z,12.20
2023-05-09T22:14:04.999Z,12.20
2023-05-09T22:16:31.993Z,12.20
2023-05-09T22:18:59.027Z,12.20
2023-05-09T22:21:26.545Z,12.10
2023-05-09T22:23:53.532Z,12.00
2023-05-09T22:26:21.747Z,11.90
2023-05-09T22:28:49.298Z,11.70
2023-05-09T22:31:16.263Z,11.60
2023-05-09T22:33:43.347Z,11.40
2023-05-09T22:36:10.863Z,11.30
2023-05-09T22:38:37.854Z,11.20
2023-05-09T22:41:04.864Z,11.20
2023-05-09T22:43:38.687Z,11.20
2023-05-09T22:46:06.459Z,11.20
2023-05-09T22:48:33.780Z,11.20
2023-05-09T22:51:00.835Z,11.20
2023-05-09T22:53:28.204Z,11.20
2023-05-09T22:55:55.417Z,11.20
2023-05-09T22:58:22.715Z,11.30
2023-05-09T23:00:49.873Z,11.30
2023-05-09T23:03:17.534Z,11.40
2023-05-09T23:05:44.652Z,11.50
2023-05-09T23:08:11.718Z,11.60
2023-05-09T23:10:38.905Z,11.60
2023-05-09T23:13:06.052Z,11.70
2023-05-09T23:15:33.979Z,11.70
2023-05-09T23:18:01.707Z,11.70
2023-05-09T23:20:28.874Z,11.70
2023-05-09T23:22:55.952Z,11.70
2023-05-09T23:25:23.099Z,11.70
2023-05-09T23:27:50.161Z,11.70
2023-05-09T23:30:17.782Z,11.80
2023-05-09T23:32:45.149Z,11.80
2023-05-09T23:35:12.230Z,11.90
2023-05-09T23:37:39.299Z,12.00
2023-05-09T23:40:06.975Z,12.20
2023-05-09T23:42:34.721Z,12.30
2023-05-09T23:45:01.752Z,12.30
2023-05-09T23:47:28.858Z,12.40
2023-05-09T23:49:55.818Z,12.50
2023-05-09T23:52:23.404Z,12.60
2023-05-09T23:54:50.605Z,12.60
2023-05-09T23:57:17.564Z,12.70
2023-05-09T23:59:44.896Z,12.70
